Time;durP1;ratioP1;P1;durP2;ratioP2;P2;SDS_P1;SDS_P2;PMS_P1;PMS_P2;Temp;Humidity;BMP_temperature;BMP_pressure;BME280_temperature;BME280_humidity;BME280_pressure;Samples;Min_cycle;Max_cycle;Signal;HPM_P1;HPM_P2
2023/12/16 00:01:33;;;;;;;;;;;;;;;;;;6188680;23;20365;-92
2023/12/16 00:03:58;;;;;;;;;;;;;;;;;;6183336;23;19916;-92
2023/12/16 00:06:24;;;;;;;;;;;;;;;;;;6187632;23;19940;-92
2023/12/16 00:08:50;;;;;;;;;;;;;;;;;;6186322;23;19939;-92
2023/12/16 00:11:17;;;;;;;;;;;;;;;;;;6187416;23;19940;-92
2023/12/16 00:13:42;;;;;;;;;;;;;;;;;;6188739;23;19908;-92
2023/12/16 00:16:08;;;;;;;;;;;;;;;;;;6187623;23;19904;-92
2023/12/16 00:18:34;;;;;;;;;;;;;;;;;;6187291;23;19958;-92
2023/12/16 00:21:00;;;;;;;;;;;;;;;;;;6188137;23;19898;-92
2023/12/16 00:23:26;;;;;;;;;;;;;;;;;;6188262;23;19908;-92
2023/12/16 00:25:52;;;;;;;;;;;;;;;;;;6187188;23;19999;-92
2023/12/16 00:28:18;;;;;;;;;;;;;;;;;;6186732;23;19911;-92
2023/12/16 00:30:44;;;;;;;;;;;;;;;;;;6186854;23;19916;-92
2023/12/16 00:33:10;;;;;;;;;;;;;;;;;;6187605;23;19911;-92
2023/12/16 00:35:36;;;;;;;;;;;;;;;;;;6186989;23;20251;-92
2023/12/16 00:38:02;;;;;;;;;;;;;;;;;;6187700;23;19907;-92
2023/12/16 00:40:28;;;;;;;;;;;;;;;;;;6187680;23;19908;-92
2023/12/16 00:42:54;;;;;;;;;;;;;;;;;;6186917;23;19952;-92
2023/12/16 00:45:20;;;;;;;;;;;;;;;;;;6187078;23;19950;-91
2023/12/16 00:47:46;;;;;;;;;;;;;;;;;;6213636;23;19983;-91
2023/12/16 00:50:12;;;;;;;;;;;;;;;;;;6213630;23;19948;-92
2023/12/16 00:52:37;;;;;;;;;;;;;;;;;;6186702;23;19912;-92
2023/12/16 00:55:03;;;;;;;;;;;;;;;;;;6186676;23;19908;-92
2023/12/16 00:57:29;;;;;;;;;;;;;;;;;;6186045;23;19907;-92
2023/12/16 00:59:55;;;;;;;;;;;;;;;;;;6186881;23;19908;-92
2023/12/16 01:02:21;;;;;;;;;;;;;;;;;;6184220;23;19904;-91
2023/12/16 01:04:47;;;;;;;;;;;;;;;;;;6185078;23;19983;-92
2023/12/16 01:07:13;;;;;;;;;;;;;;;;;;6185557;23;19908;-92
2023/12/16 01:09:39;;;;;;;;;;;;;;;;;;6186109;23;19944;-92
2023/12/16 01:12:05;;;;;;;;;;;;;;;;;;6186025;23;19943;-92
2023/12/16 01:14:31;;;;;;;;;;;;;;;;;;6185956;23;19904;-92
2023/12/16 01:16:57;;;;;;;;;;;;;;;;;;6185075;23;20269;-91
2023/12/16 01:19:23;;;;;;;;;;;;;;;;;;6185810;23;20227;-92
2023/12/16 01:21:49;;;;;;;;;;;;;;;;;;6185948;23;19904;-92
2023/12/16 01:24:15;;;;;;;;;;;;;;;;;;6185221;23;19912;-92
2023/12/16 01:26:41;;;;;;;;;;;;;;;;;;6187682;23;19908;-92
2023/12/16 01:29:07;;;;;;;;;;;;;;;;;;6187190;23;20405;-92
2023/12/16 01:31:33;;;;;;;;;;;;;;;;;;6187745;23;19918;-91
2023/12/16 01:33:59;;;;;;;;;;;;;;;;;;6187027;23;19979;-92
2023/12/16 01:36:25;;;;;;;;;;;;;;;;;;6188530;23;19904;-92
2023/12/16 01:38:51;;;;;;;;;;;;;;;;;;6187908;23;19912;-92
2023/12/16 01:41:17;;;;;;;;;;;;;;;;;;6186329;23;19914;-92
2023/12/16 01:43:43;;;;;;;;;;;;;;;;;;6186858;23;19952;-92
2023/12/16 01:46:09;;;;;;;;;;;;;;;;;;6186355;23;19953;-92
2023/12/16 01:48:35;;;;;;;;;;;;;;;;;;6186013;23;19904;-92
2023/12/16 01:51:01;;;;;;;;;;;;;;;;;;6213602;23;20316;-92
2023/12/16 01:53:27;;;;;;;;;;;;;;;;;;6186701;23;19960;-92
2023/12/16 01:55:53;;;;;;;;;;;;;;;;;;6187235;23;19908;-92
2023/12/16 01:58:19;;;;;;;;;;;;;;;;;;6186922;23;19908;-92
2023/12/16 02:00:45;;;;;;;;;;;;;;;;;;6186381;23;19911;-92
2023/12/16 02:03:10;;;;;;;;;;;;;;;;;;6186188;23;19903;-92
2023/12/16 02:05:36;;;;;;;;;;;;;;;;;;6186302;23;19970;-92
2023/12/16 02:08:02;;;;;;;;;;;;;;;;;;6187136;23;19948;-91
2023/12/16 02:10:28;;;;;;;;;;;;;;;;;;6213229;23;19918;-91
2023/12/16 02:12:54;;;;;;;;;;;;;;;;;;6186940;23;19912;-92
2023/12/16 02:15:20;;;;;;;;;;;;;;;;;;6186717;23;20338;-92
2023/12/16 02:17:46;;;;;;;;;;;;;;;;;;6185874;23;19908;-92
2023/12/16 02:20:12;;;;;;;;;;;;;;;;;;6187189;23;19904;-92
2023/12/16 02:22:38;;;;;;;;;;;;;;;;;;6173722;23;19954;-92
2023/12/16 02:25:04;;;;;;;;;;;;;;;;;;6186690;23;19930;-92
2023/12/16 02:27:30;;;;;;;;;;;;;;;;;;6185323;23;19958;-92
2023/12/16 02:29:56;;;;;;;;;;;;;;;;;;6187965;23;19939;-92
2023/12/16 02:32:22;;;;;;;;;;;;;;;;;;6185065;23;19915;-91
2023/12/16 02:34:48;;;;;;;;;;;;;;;;;;6186185;23;20238;-92
2023/12/16 02:37:32;;;;;;;;;;;;;;;;;;6185859;23;19908;-92
2023/12/16 02:39:58;;;;;;;;;;;;;;;;;;6186930;23;19904;-92
2023/12/16 02:42:24;;;;;;;;;;;;;;;;;;6185456;23;19912;-92
2023/12/16 02:44:50;;;;;;;;;;;;;;;;;;6188246;23;20239;-92
2023/12/16 02:47:16;;;;;;;;;;;;;;;;;;6186142;23;19915;-92
2023/12/16 02:49:42;;;;;;;;;;;;;;;;;;6186943;23;19911;-92
2023/12/16 02:52:07;;;;;;;;;;;;;;;;;;6185697;23;20435;-92
2023/12/16 02:54:33;;;;;;;;;;;;;;;;;;6183874;23;19916;-91
2023/12/16 02:56:59;;;;;;;;;;;;;;;;;;6186233;23;20504;-92
2023/12/16 02:59:25;;;;;;;;;;;;;;;;;;6187316;23;19915;-92
2023/12/16 03:01:51;;;;;;;;;;;;;;;;;;6211562;23;19904;-92
2023/12/16 03:04:17;;;;;;;;;;;;;;;;;;6184428;23;19935;-92
2023/12/16 03:06:43;;;;;;;;;;;;;;;;;;6185084;23;19904;-92
2023/12/16 03:09:09;;;;;;;;;;;;;;;;;;6185566;23;19915;-91
2023/12/16 03:11:35;;;;;;;;;;;;;;;;;;6184122;23;20022;-92
2023/12/16 03:14:02;;;;;;;;;;;;;;;;;;6203706;22;19935;-93
2023/12/16 03:16:28;;;;;;;;;;;;;;;;;;6251557;22;19966;-93
2023/12/16 03:18:54;;;;;;;;;;;;;;;;;;6250189;23;20309;-93
2023/12/16 03:21:20;;;;;;;;;;;;;;;;;;6249599;23;19904;-94
2023/12/16 03:23:46;;;;;;;;;;;;;;;;;;6249453;23;19904;-94
2023/12/16 03:26:12;;;;;;;;;;;;;;;;;;6249167;23;20326;-93
2023/12/16 03:28:38;;;;;;;;;;;;;;;;;;6249739;23;19904;-93
2023/12/16 03:31:04;;;;;;;;;;;;;;;;;;6249586;23;19935;-94
2023/12/16 03:33:30;;;;;;;;;;;;;;;;;;6249666;23;19991;-94
2023/12/16 03:35:56;;;;;;;;;;;;;;;;;;6249757;23;19908;-94
2023/12/16 03:38:21;;;;;;;;;;;;;;;;;;6249150;23;19910;-94
2023/12/16 03:40:47;;;;;;;;;;;;;;;;;;6249364;23;19998;-93
2023/12/16 03:43:13;;;;;;;;;;;;;;;;;;6239373;23;19910;-94
2023/12/16 03:45:39;;;;;;;;;;;;;;;;;;6221890;23;19908;-94
2023/12/16 03:48:05;;;;;;;;;;;;;;;;;;6219889;23;19904;-93
2023/12/16 03:50:31;;;;;;;;;;;;;;;;;;6219510;23;19926;-93
2023/12/16 03:52:57;;;;;;;;;;;;;;;;;;6218858;23;19943;-92
2023/12/16 03:55:23;;;;;;;;;;;;;;;;;;6218656;23;19904;-93
2023/12/16 03:57:49;;;;;;;;;;;;;;;;;;6219378;23;19911;-93
2023/12/16 04:00:15;;;;;;;;;;;;;;;;;;6218602;23;19904;-94
2023/12/16 04:02:41;;;;;;;;;;;;;;;;;;6218688;23;19904;-93
2023/12/16 04:05:07;;;;;;;;;;;;;;;;;;6218615;23;19912;-93
2023/12/16 04:07:33;;;;;;;;;;;;;;;;;;6220586;23;19931;-96
2023/12/16 04:10:00;;;;;;;;;;;;;;;;;;6227704;23;20341;-96
2023/12/16 04:12:25;;;;;;;;;;;;;;;;;;6228027;23;19988;-96
2023/12/16 04:14:51;;;;;;;;;;;;;;;;;;6227405;23;19912;-96
2023/12/16 04:17:17;;;;;;;;;;;;;;;;;;6227641;23;19919;-96
2023/12/16 04:19:43;;;;;;;;;;;;;;;;;;6227266;23;19948;-96
2023/12/16 04:22:09;;;;;;;;;;;;;;;;;;6227779;23;19966;-96
2023/12/16 04:24:35;;;;;;;;;;;;;;;;;;6227809;23;19916;-96
2023/12/16 04:27:01;;;;;;;;;;;;;;;;;;6228779;23;19904;-96
2023/12/16 04:29:27;;;;;;;;;;;;;;;;;;6228506;23;19911;-96
2023/12/16 04:31:53;;;;;;;;;;;;;;;;;;6228716;23;19927;-96
2023/12/16 04:34:19;;;;;;;;;;;;;;;;;;6227864;23;19927;-96
2023/12/16 04:36:45;;;;;;;;;;;;;;;;;;6228341;23;19904;-96
2023/12/16 04:39:11;;;;;;;;;;;;;;;;;;6229500;23;19956;-96
2023/12/16 04:41:37;;;;;;;;;;;;;;;;;;6228218;23;19915;-96
2023/12/16 04:44:03;;;;;;;;;;;;;;;;;;6229318;23;19919;-96
2023/12/16 04:46:29;;;;;;;;;;;;;;;;;;6229033;23;19904;-96
2023/12/16 04:48:55;;;;;;;;;;;;;;;;;;6227618;23;20306;-96
2023/12/16 04:51:21;;;;;;;;;;;;;;;;;;6229956;23;19911;-95
2023/12/16 04:53:48;;;;;;;;;;;;;;;;;;6226994;23;19904;-96
2023/12/16 04:56:14;;;;;;;;;;;;;;;;;;6228178;23;19996;-96
2023/12/16 04:58:39;;;;;;;;;;;;;;;;;;6228626;23;19908;-96
2023/12/16 05:01:05;;;;;;;;;;;;;;;;;;6229689;23;19911;-96
2023/12/16 05:03:32;;;;;;;;;;;;;;;;;;6229243;23;19904;-96
2023/12/16 05:05:58;;;;;;;;;;;;;;;;;;6228532;23;19916;-96
2023/12/16 05:08:24;;;;;;;;;;;;;;;;;;6229857;23;19904;-96
2023/12/16 05:10:50;;;;;;;;;;;;;;;;;;6231080;23;19955;-96
2023/12/16 05:13:22;;;;;;;;;;;;;;;;;;6229403;23;19930;-96
2023/12/16 05:15:48;;;;;;;;;;;;;;;;;;6230604;23;19919;-96
2023/12/16 05:18:13;;;;;;;;;;;;;;;;;;6229274;23;19979;-96
2023/12/16 05:20:40;;;;;;;;;;;;;;;;;;6230163;23;19908;-96
2023/12/16 05:23:06;;;;;;;;;;;;;;;;;;6231618;23;19926;-96
2023/12/16 05:25:32;;;;;;;;;;;;;;;;;;6231040;23;19911;-96
2023/12/16 05:27:58;;;;;;;;;;;;;;;;;;6230651;23;19930;-96
2023/12/16 05:30:24;;;;;;;;;;;;;;;;;;6230585;23;19940;-96
2023/12/16 05:32:50;;;;;;;;;;;;;;;;;;6232001;23;19904;-96
2023/12/16 05:35:18;;;;;;;;;;;;;;;;;;6230791;23;19911;-96
2023/12/16 05:37:44;;;;;;;;;;;;;;;;;;6231965;23;19904;-96
2023/12/16 05:40:10;;;;;;;;;;;;;;;;;;6230977;23;19986;-96
2023/12/16 05:42:36;;;;;;;;;;;;;;;;;;6231826;23;19927;-96
2023/12/16 05:45:02;;;;;;;;;;;;;;;;;;6231876;23;19909;-96
2023/12/16 05:47:29;;;;;;;;;;;;;;;;;;6231377;23;19904;-96
2023/12/16 05:49:55;;;;;;;;;;;;;;;;;;6233285;23;19948;-96
2023/12/16 05:52:21;;;;;;;;;;;;;;;;;;6232131;23;19911;-96
2023/12/16 05:54:47;;;;;;;;;;;;;;;;;;6233138;23;19908;-96
2023/12/16 05:57:13;;;;;;;;;;;;;;;;;;6236612;23;19961;-96
2023/12/16 05:59:39;;;;;;;;;;;;;;;;;;6232327;23;19926;-96
2023/12/16 06:02:05;;;;;;;;;;;;;;;;;;6233386;23;19947;-96
2023/12/16 06:04:31;;;;;;;;;;;;;;;;;;6233096;23;19919;-96
2023/12/16 06:06:57;;;;;;;;;;;;;;;;;;6234356;23;19908;-96
2023/12/16 06:09:23;;;;;;;;;;;;;;;;;;6233503;23;19970;-96
2023/12/16 06:11:49;;;;;;;;;;;;;;;;;;6234212;23;19904;-96
2023/12/16 06:14:15;;;;;;;;;;;;;;;;;;6234373;23;19908;-96
2023/12/16 06:16:41;;;;;;;;;;;;;;;;;;6236291;22;20127;-90
2023/12/16 06:19:07;;;;;;;;;;;;;;;;;;6277340;22;19913;-91
2023/12/16 06:21:33;;;;;;;;;;;;;;;;;;6279234;22;19915;-91
2023/12/16 06:24:00;;;;;;;;;;;;;;;;;;6277850;22;19938;-88
2023/12/16 06:26:25;;;;;;;;;;;;;;;;;;6278093;22;19914;-91
2023/12/16 06:28:51;;;;;;;;;;;;;;;;;;6278113;22;20237;-90
2023/12/16 06:31:17;;;;;;;;;;;;;;;;;;6279069;22;19907;-91
2023/12/16 06:33:43;;;;;;;;;;;;;;;;;;6278330;22;19926;-90
2023/12/16 06:36:09;;;;;;;;;;;;;;;;;;6277193;22;19995;-90
2023/12/16 06:38:35;;;;;;;;;;;;;;;;;;6278576;22;19911;-91
2023/12/16 06:41:01;;;;;;;;;;;;;;;;;;6278569;22;19982;-90
2023/12/16 06:43:27;;;;;;;;;;;;;;;;;;6269149;22;19907;-91
2023/12/16 06:45:54;;;;;;;;;;;;;;;;;;6248153;22;20326;-91
2023/12/16 06:48:20;;;;;;;;;;;;;;;;;;6245994;22;19955;-90
2023/12/16 06:50:46;;;;;;;;;;;;;;;;;;6248551;22;19931;-90
2023/12/16 06:53:12;;;;;;;;;;;;;;;;;;6246887;22;19961;-90
2023/12/16 06:55:38;;;;;;;;;;;;;;;;;;6247312;22;19914;-90
2023/12/16 06:58:04;;;;;;;;;;;;;;;;;;6246937;22;19965;-90
2023/12/16 07:00:30;;;;;;;;;;;;;;;;;;6246830;22;20372;-91
2023/12/16 07:02:56;;;;;;;;;;;;;;;;;;6246030;22;19982;-90
2023/12/16 07:05:22;;;;;;;;;;;;;;;;;;6246674;22;19914;-90
2023/12/16 07:07:51;;;;;;;;;;;;;;;;;;6246699;22;19908;-90
2023/12/16 07:10:16;;;;;;;;;;;;;;;;;;6247784;22;19903;-90
2023/12/16 07:12:42;;;;;;;;;;;;;;;;;;6273917;22;19917;-90
2023/12/16 07:15:09;;;;;;;;;;;;;;;;;;6247123;22;19903;-90
2023/12/16 07:17:35;;;;;;;;;;;;;;;;;;6245645;22;19946;-90
2023/12/16 07:20:02;;;;;;;;;;;;;;;;;;6246582;22;20348;-90
2023/12/16 07:22:29;;;;;;;;;;;;;;;;;;6247431;22;19907;-90
2023/12/16 07:24:55;;;;;;;;;;;;;;;;;;6246874;22;19937;-90
2023/12/16 07:27:22;;;;;;;;;;;;;;;;;;6245376;22;19903;-90
2023/12/16 07:29:48;;;;;;;;;;;;;;;;;;6246858;22;20392;-90
2023/12/16 07:32:14;;;;;;;;;;;;;;;;;;6245884;22;20351;-90
2023/12/16 07:34:40;;;;;;;;;;;;;;;;;;6247078;22;20218;-90
2023/12/16 07:37:06;;;;;;;;;;;;;;;;;;6247038;22;19914;-90
2023/12/16 07:39:32;;;;;;;;;;;;;;;;;;6246827;22;19934;-90
2023/12/16 07:41:58;;;;;;;;;;;;;;;;;;6246461;22;19929;-90
2023/12/16 07:44:27;;;;;;;;;;;;;;;;;;6220191;22;22439;-90
2023/12/16 07:46:53;;;;;;;;;;;;;;;;;;6245754;22;19914;-90
2023/12/16 07:49:22;;;;;;;;;;;;;;;;;;6246360;22;19986;-90
2023/12/16 07:51:48;;;;;;;;;;;;;;;;;;6247494;22;19907;-90
2023/12/16 07:54:14;;;;;;;;;;;;;;;;;;6245388;22;19911;-89
2023/12/16 07:56:40;;;;;;;;;;;;;;;;;;6247070;22;19910;-90
2023/12/16 07:59:07;;;;;;;;;;;;;;;;;;6246427;22;19907;-90
2023/12/16 08:01:33;;;;;;;;;;;;;;;;;;6245324;22;20452;-90
2023/12/16 08:03:59;;;;;;;;;;;;;;;;;;6243709;22;19922;-90
2023/12/16 08:06:25;;;;;;;;;;;;;;;;;;6247854;22;19913;-90
2023/12/16 08:08:51;;;;;;;;;;;;;;;;;;6246265;22;20314;-90
2023/12/16 08:11:18;;;;;;;;;;;;;;;;;;6246708;22;19911;-90
2023/12/16 08:13:44;;;;;;;;;;;;;;;;;;6246747;22;19911;-89
2023/12/16 08:16:11;;;;;;;;;;;;;;;;;;6247341;22;19907;-90
2023/12/16 08:18:37;;;;;;;;;;;;;;;;;;6246276;22;20405;-90
2023/12/16 08:21:03;;;;;;;;;;;;;;;;;;6246719;22;20329;-89
2023/12/16 08:23:29;;;;;;;;;;;;;;;;;;6246198;22;19929;-90
2023/12/16 08:25:55;;;;;;;;;;;;;;;;;;6246380;22;19915;-90
2023/12/16 08:28:20;;;;;;;;;;;;;;;;;;6245423;22;19904;-90
2023/12/16 08:30:49;;;;;;;;;;;;;;;;;;6247060;22;19990;-90
2023/12/16 08:33:15;;;;;;;;;;;;;;;;;;6244685;22;19911;-89
2023/12/16 08:35:41;;;;;;;;;;;;;;;;;;6245616;22;19903;-90
2023/12/16 08:38:07;;;;;;;;;;;;;;;;;;6246546;22;19907;-89
2023/12/16 08:40:32;;;;;;;;;;;;;;;;;;6246938;22;20230;-90
2023/12/16 08:42:58;;;;;;;;;;;;;;;;;;6245312;22;19903;-90
2023/12/16 08:45:24;;;;;;;;;;;;;;;;;;6245356;22;19954;-90
2023/12/16 08:47:51;;;;;;;;;;;;;;;;;;6245571;22;19911;-90
2023/12/16 08:50:16;;;;;;;;;;;;;;;;;;6246528;22;19907;-90
2023/12/16 08:52:42;;;;;;;;;;;;;;;;;;6245542;22;19904;-89
2023/12/16 08:55:08;;;;;;;;;;;;;;;;;;6247060;22;19903;-89
2023/12/16 08:57:34;;;;;;;;;;;;;;;;;;6244755;22;19907;-89
2023/12/16 09:00:00;;;;;;;;;;;;;;;;;;6246429;22;20041;-90
2023/12/16 09:02:26;;;;;;;;;;;;;;;;;;6243988;22;20312;-89
2023/12/16 09:04:52;;;;;;;;;;;;;;;;;;6245357;22;19943;-89
2023/12/16 09:07:18;;;;;;;;;;;;;;;;;;6246138;22;20389;-90
2023/12/16 09:09:44;;;;;;;;;;;;;;;;;;6246401;22;19907;-90
2023/12/16 09:12:10;;;;;;;;;;;;;;;;;;6244298;22;20002;-90
2023/12/16 09:14:36;;;;;;;;;;;;;;;;;;6246446;22;19904;-90
2023/12/16 09:17:02;;;;;;;;;;;;;;;;;;6244994;22;20002;-90
2023/12/16 09:19:28;;;;;;;;;;;;;;;;;;6246521;22;20269;-90
2023/12/16 09:21:54;;;;;;;;;;;;;;;;;;6245343;22;20000;-90
2023/12/16 09:24:20;;;;;;;;;;;;;;;;;;6246180;22;20272;-89
2023/12/16 09:26:46;;;;;;;;;;;;;;;;;;6243495;22;19973;-90
2023/12/16 09:29:12;;;;;;;;;;;;;;;;;;6245837;22;19907;-90
2023/12/16 09:31:38;;;;;;;;;;;;;;;;;;6245671;22;20381;-90
2023/12/16 09:34:04;;;;;;;;;;;;;;;;;;6245890;22;19922;-90
2023/12/16 09:36:30;;;;;;;;;;;;;;;;;;6245596;22;19904;-89
2023/12/16 09:38:57;;;;;;;;;;;;;;;;;;6245401;22;19982;-90
2023/12/16 09:41:23;;;;;;;;;;;;;;;;;;6271455;22;19974;-89
2023/12/16 09:43:48;;;;;;;;;;;;;;;;;;6245698;22;19961;-90
2023/12/16 09:46:14;;;;;;;;;;;;;;;;;;6247445;22;19915;-90
2023/12/16 09:48:42;;;;;;;;;;;;;;;;;;6246183;22;19956;-90
2023/12/16 09:51:08;;;;;;;;;;;;;;;;;;6249029;22;19930;-90
2023/12/16 09:53:34;;;;;;;;;;;;;;;;;;6247016;22;19911;-90
2023/12/16 09:56:00;;;;;;;;;;;;;;;;;;6248066;22;19908;-90
2023/12/16 09:58:26;;;;;;;;;;;;;;;;;;6248813;22;19907;-90
2023/12/16 10:00:52;;;;;;;;;;;;;;;;;;6248863;22;19907;-89
2023/12/16 10:03:18;;;;;;;;;;;;;;;;;;6247119;22;19914;-90
2023/12/16 10:05:44;;;;;;;;;;;;;;;;;;6246577;22;19916;-90
2023/12/16 10:08:10;;;;;;;;;;;;;;;;;;6248163;22;20284;-90
2023/12/16 10:10:36;;;;;;;;;;;;;;;;;;6248051;22;19907;-90
2023/12/16 10:13:03;;;;;;;;;;;;;;;;;;6247314;22;19915;-90
2023/12/16 10:15:30;;;;;;;;;;;;;;;;;;6247492;22;19942;-89
2023/12/16 10:17:56;;;;;;;;;;;;;;;;;;6247039;22;19938;-90
2023/12/16 10:20:22;;;;;;;;;;;;;;;;;;6247749;22;20365;-90
2023/12/16 10:22:48;;;;;;;;;;;;;;;;;;6247857;22;19927;-90
2023/12/16 10:25:14;;;;;;;;;;;;;;;;;;6248168;22;19915;-90
2023/12/16 10:27:40;;;;;;;;;;;;;;;;;;6248134;22;19931;-90
2023/12/16 10:30:06;;;;;;;;;;;;;;;;;;6247707;22;19907;-90
2023/12/16 10:32:31;;;;;;;;;;;;;;;;;;6246337;22;19907;-90
2023/12/16 10:34:58;;;;;;;;;;;;;;;;;;6247327;22;19907;-90
2023/12/16 10:37:24;;;;;;;;;;;;;;;;;;6248426;22;19918;-90
2023/12/16 10:39:50;;;;;;;;;;;;;;;;;;6247481;22;19907;-90
2023/12/16 10:42:16;;;;;;;;;;;;;;;;;;6246169;22;19903;-89
2023/12/16 10:44:42;;;;;;;;;;;;;;;;;;6247103;22;19907;-90
2023/12/16 10:47:08;;;;;;;;;;;;;;;;;;6246193;22;19911;-90
2023/12/16 10:49:33;;;;;;;;;;;;;;;;;;6247391;22;19907;-90
2023/12/16 10:51:59;;;;;;;;;;;;;;;;;;6246687;22;19911;-90
2023/12/16 10:54:25;;;;;;;;;;;;;;;;;;6246804;22;19911;-90
2023/12/16 10:56:51;;;;;;;;;;;;;;;;;;6247007;22;19953;-90
2023/12/16 10:59:18;;;;;;;;;;;;;;;;;;6246324;22;19934;-89
2023/12/16 11:01:44;;;;;;;;;;;;;;;;;;6247520;22;20570;-91
2023/12/16 11:04:11;;;;;;;;;;;;;;;;;;6245593;22;20243;-90
2023/12/16 11:06:37;;;;;;;;;;;;;;;;;;6247169;22;19913;-90
2023/12/16 11:09:04;;;;;;;;;;;;;;;;;;6246004;22;19939;-90
2023/12/16 11:11:31;;;;;;;;;;;;;;;;;;6247023;22;19938;-90
2023/12/16 11:13:57;;;;;;;;;;;;;;;;;;6245568;22;19903;-90
2023/12/16 11:16:22;;;;;;;;;;;;;;;;;;6247412;22;20407;-90
2023/12/16 11:18:49;;;;;;;;;;;;;;;;;;6244427;22;19965;-90
2023/12/16 11:21:17;;;;;;;;;;;;;;;;;;6247807;22;19919;-90
2023/12/16 11:23:43;;;;;;;;;;;;;;;;;;6246216;22;19986;-90
2023/12/16 11:26:09;;;;;;;;;;;;;;;;;;6247199;22;19941;-90
2023/12/16 11:28:35;;;;;;;;;;;;;;;;;;6246242;22;19907;-90
2023/12/16 11:31:01;;;;;;;;;;;;;;;;;;6246206;22;19910;-90
2023/12/16 11:33:27;;;;;;;;;;;;;;;;;;6244633;22;20249;-90
2023/12/16 11:35:53;;;;;;;;;;;;;;;;;;6246113;22;19910;-90
2023/12/16 11:38:19;;;;;;;;;;;;;;;;;;6245800;22;19915;-90
2023/12/16 11:40:48;;;;;;;;;;;;;;;;;;6247937;22;20601;-90
2023/12/16 11:43:14;;;;;;;;;;;;;;;;;;6246045;22;19903;-90
2023/12/16 11:45:40;;;;;;;;;;;;;;;;;;6246973;22;19918;-90
2023/12/16 11:48:06;;;;;;;;;;;;;;;;;;6247366;22;19934;-90
2023/12/16 11:50:32;;;;;;;;;;;;;;;;;;6248971;22;19934;-90
2023/12/16 11:52:58;;;;;;;;;;;;;;;;;;6246931;22;19913;-89
2023/12/16 11:55:24;;;;;;;;;;;;;;;;;;6247943;22;20384;-90
2023/12/16 11:57:51;;;;;;;;;;;;;;;;;;6246834;22;19934;-89
2023/12/16 12:00:16;;;;;;;;;;;;;;;;;;6248016;22;19911;-89
2023/12/16 12:02:43;;;;;;;;;;;;;;;;;;6246074;22;20037;-89
2023/12/16 12:05:11;;;;;;;;;;;;;;;;;;6247536;22;19911;-90
2023/12/16 12:07:37;;;;;;;;;;;;;;;;;;6246645;22;19904;-89
2023/12/16 12:10:03;;;;;;;;;;;;;;;;;;6246936;22;19908;-90
2023/12/16 12:12:29;;;;;;;;;;;;;;;;;;6246183;22;19930;-90
2023/12/16 12:14:55;;;;;;;;;;;;;;;;;;6246411;22;19916;-90
2023/12/16 12:17:21;;;;;;;;;;;;;;;;;;6245830;22;19978;-90
2023/12/16 12:19:47;;;;;;;;;;;;;;;;;;6248508;22;20058;-90
2023/12/16 12:22:13;;;;;;;;;;;;;;;;;;6247218;22;19946;-90
2023/12/16 12:24:39;;;;;;;;;;;;;;;;;;6247341;22;19942;-90
2023/12/16 12:27:05;;;;;;;;;;;;;;;;;;6246944;22;19911;-89
2023/12/16 12:29:31;;;;;;;;;;;;;;;;;;6247724;22;19914;-89
2023/12/16 12:32:00;;;;;;;;;;;;;;;;;;6246403;22;19931;-91
2023/12/16 12:34:26;;;;;;;;;;;;;;;;;;6246508;22;19907;-90
2023/12/16 12:36:52;;;;;;;;;;;;;;;;;;6247060;22;19910;-90
2023/12/16 12:39:18;;;;;;;;;;;;;;;;;;6247036;22;19965;-90
2023/12/16 12:41:43;;;;;;;;;;;;;;;;;;6246123;22;19998;-89
2023/12/16 12:44:09;;;;;;;;;;;;;;;;;;6247521;22;20381;-90
2023/12/16 12:46:35;;;;;;;;;;;;;;;;;;6247385;22;19911;-90
2023/12/16 12:49:01;;;;;;;;;;;;;;;;;;6246531;22;20341;-89
2023/12/16 12:51:27;;;;;;;;;;;;;;;;;;6246964;22;19914;-90
2023/12/16 12:53:53;;;;;;;;;;;;;;;;;;6246855;22;19907;-90
2023/12/16 12:56:19;;;;;;;;;;;;;;;;;;6272351;22;20424;-90
2023/12/16 12:58:45;;;;;;;;;;;;;;;;;;6247360;22;19914;-89
2023/12/16 13:01:12;;;;;;;;;;;;;;;;;;6246850;22;19934;-90
2023/12/16 13:03:38;;;;;;;;;;;;;;;;;;6244735;22;20616;-90
2023/12/16 13:06:06;;;;;;;;;;;;;;;;;;6246045;22;19915;-90
2023/12/16 13:08:32;;;;;;;;;;;;;;;;;;6246496;22;19957;-90
2023/12/16 13:10:58;;;;;;;;;;;;;;;;;;6245893;22;20001;-90
2023/12/16 13:13:24;;;;;;;;;;;;;;;;;;6244695;22;19918;-90
2023/12/16 13:15:50;;;;;;;;;;;;;;;;;;6245014;22;19911;-90
2023/12/16 13:18:16;;;;;;;;;;;;;;;;;;6244426;22;19918;-90
2023/12/16 13:20:43;;;;;;;;;;;;;;;;;;6246444;22;19974;-89
2023/12/16 13:23:09;;;;;;;;;;;;;;;;;;6247515;22;19903;-90
2023/12/16 13:25:35;;;;;;;;;;;;;;;;;;6247136;22;19961;-90
2023/12/16 13:28:01;;;;;;;;;;;;;;;;;;6247987;22;19904;-90
2023/12/16 13:30:27;;;;;;;;;;;;;;;;;;6246659;22;19904;-90
2023/12/16 13:32:53;;;;;;;;;;;;;;;;;;6246443;22;19907;-90
2023/12/16 13:35:18;;;;;;;;;;;;;;;;;;6246755;22;20390;-90
2023/12/16 13:37:44;;;;;;;;;;;;;;;;;;6247146;22;19914;-90
2023/12/16 13:40:10;;;;;;;;;;;;;;;;;;6274022;22;19927;-90
2023/12/16 13:42:36;;;;;;;;;;;;;;;;;;6247011;22;20376;-91
2023/12/16 13:45:04;;;;;;;;;;;;;;;;;;6246832;22;20105;-90
2023/12/16 13:47:30;;;;;;;;;;;;;;;;;;6246371;22;20345;-90
2023/12/16 13:49:55;;;;;;;;;;;;;;;;;;6247477;22;19907;-90
2023/12/16 13:52:21;;;;;;;;;;;;;;;;;;6246760;22;19903;-89
2023/12/16 13:54:47;;;;;;;;;;;;;;;;;;6246847;22;19907;-90
2023/12/16 13:57:13;;;;;;;;;;;;;;;;;;6247421;22;20321;-90
2023/12/16 13:59:39;;;;;;;;;;;;;;;;;;6247132;22;19938;-90
2023/12/16 14:02:06;;;;;;;;;;;;;;;;;;6247378;22;20371;-90
2023/12/16 14:04:32;;;;;;;;;;;;;;;;;;6246267;22;19907;-90
2023/12/16 14:06:59;;;;;;;;;;;;;;;;;;6247273;22;19903;-90
2023/12/16 14:09:25;;;;;;;;;;;;;;;;;;6274231;22;19907;-90
2023/12/16 14:11:51;;;;;;;;;;;;;;;;;;6246853;22;19974;-90
2023/12/16 14:14:17;;;;;;;;;;;;;;;;;;6246006;22;19938;-90
2023/12/16 14:16:43;;;;;;;;;;;;;;;;;;6247161;22;20325;-90
2023/12/16 14:19:12;;;;;;;;;;;;;;;;;;6245774;22;19911;-90
2023/12/16 14:21:38;;;;;;;;;;;;;;;;;;6246082;22;20353;-90
2023/12/16 14:24:04;;;;;;;;;;;;;;;;;;6247346;22;19911;-90
2023/12/16 14:26:30;;;;;;;;;;;;;;;;;;6247348;22;19934;-90
2023/12/16 14:28:56;;;;;;;;;;;;;;;;;;6248282;22;19914;-90
2023/12/16 14:31:24;;;;;;;;;;;;;;;;;;6247153;22;19908;-90
2023/12/16 14:33:50;;;;;;;;;;;;;;;;;;6271673;22;19907;-90
2023/12/16 14:36:16;;;;;;;;;;;;;;;;;;6246812;22;19926;-90
2023/12/16 14:38:42;;;;;;;;;;;;;;;;;;6245868;22;19903;-90
2023/12/16 14:41:08;;;;;;;;;;;;;;;;;;6247757;22;19930;-90
2023/12/16 14:43:34;;;;;;;;;;;;;;;;;;6245776;22;20325;-90
2023/12/16 14:45:59;;;;;;;;;;;;;;;;;;6248310;22;19911;-90
2023/12/16 14:48:25;;;;;;;;;;;;;;;;;;6244588;22;19926;-91
2023/12/16 14:50:51;;;;;;;;;;;;;;;;;;6246966;22;19907;-91
2023/12/16 14:53:17;;;;;;;;;;;;;;;;;;6247937;22;20280;-90
2023/12/16 14:55:43;;;;;;;;;;;;;;;;;;6247150;22;19934;-91
2023/12/16 14:58:09;;;;;;;;;;;;;;;;;;6247422;22;20254;-90
2023/12/16 15:00:35;;;;;;;;;;;;;;;;;;6246004;22;19938;-90
2023/12/16 15:03:01;;;;;;;;;;;;;;;;;;6245433;22;19907;-90
2023/12/16 15:05:27;;;;;;;;;;;;;;;;;;6245323;22;19907;-90
2023/12/16 15:07:53;;;;;;;;;;;;;;;;;;6245937;22;19907;-90
2023/12/16 15:10:19;;;;;;;;;;;;;;;;;;6247267;22;20420;-90
2023/12/16 15:12:45;;;;;;;;;;;;;;;;;;6245681;22;19930;-90
2023/12/16 15:15:11;;;;;;;;;;;;;;;;;;6247370;22;19987;-91
2023/12/16 15:17:37;;;;;;;;;;;;;;;;;;6246005;22;19966;-90
2023/12/16 15:20:03;;;;;;;;;;;;;;;;;;6247160;22;19943;-90
2023/12/16 15:22:29;;;;;;;;;;;;;;;;;;6245262;22;19903;-90
2023/12/16 15:24:55;;;;;;;;;;;;;;;;;;6246567;22;19958;-90
2023/12/16 15:27:21;;;;;;;;;;;;;;;;;;6245634;22;19950;-90
2023/12/16 15:29:47;;;;;;;;;;;;;;;;;;6246974;22;19907;-90
2023/12/16 15:32:14;;;;;;;;;;;;;;;;;;6245152;22;19903;-91
2023/12/16 15:34:40;;;;;;;;;;;;;;;;;;6247205;22;19987;-90
2023/12/16 15:37:07;;;;;;;;;;;;;;;;;;6244935;22;19938;-90
2023/12/16 15:39:33;;;;;;;;;;;;;;;;;;6245652;22;19953;-90
2023/12/16 15:41:59;;;;;;;;;;;;;;;;;;6245379;22;20281;-90
2023/12/16 15:44:25;;;;;;;;;;;;;;;;;;6246428;22;19903;-91
2023/12/16 15:46:51;;;;;;;;;;;;;;;;;;6245793;22;19914;-90
2023/12/16 15:49:20;;;;;;;;;;;;;;;;;;6245991;22;19953;-90
2023/12/16 15:51:46;;;;;;;;;;;;;;;;;;6246149;22;19904;-90
2023/12/16 15:54:12;;;;;;;;;;;;;;;;;;6246258;22;20280;-90
2023/12/16 15:56:40;;;;;;;;;;;;;;;;;;6246474;22;19957;-90
2023/12/16 15:59:06;;;;;;;;;;;;;;;;;;6246248;22;19930;-90
2023/12/16 16:01:33;;;;;;;;;;;;;;;;;;6246655;22;19907;-90
2023/12/16 16:04:03;;;;;;;;;;;;;;;;;;6243736;22;19915;-90
2023/12/16 16:06:30;;;;;;;;;;;;;;;;;;6247647;22;19907;-90
2023/12/16 16:08:56;;;;;;;;;;;;;;;;;;6245673;22;19929;-90
2023/12/16 16:11:22;;;;;;;;;;;;;;;;;;6246512;22;19982;-91
2023/12/16 16:13:48;;;;;;;;;;;;;;;;;;6244854;22;19907;-89
2023/12/16 16:16:14;;;;;;;;;;;;;;;;;;6246308;22;20313;-90
2023/12/16 16:18:40;;;;;;;;;;;;;;;;;;6244851;22;19950;-90
2023/12/16 16:21:06;;;;;;;;;;;;;;;;;;6247733;22;19982;-90
2023/12/16 16:23:32;;;;;;;;;;;;;;;;;;6245541;22;19904;-89
2023/12/16 16:25:57;;;;;;;;;;;;;;;;;;6245371;22;19914;-90
2023/12/16 16:28:23;;;;;;;;;;;;;;;;;;6245485;22;19961;-90
2023/12/16 16:30:49;;;;;;;;;;;;;;;;;;6274162;22;19907;-90
2023/12/16 16:33:15;;;;;;;;;;;;;;;;;;6245905;22;19986;-90
2023/12/16 16:35:42;;;;;;;;;;;;;;;;;;6246557;22;19903;-89
2023/12/16 16:38:08;;;;;;;;;;;;;;;;;;6247540;22;20332;-89